createdAt,value
2023-02-27T00:02:19.056Z,-0.67
2023-02-27T00:04:45.692Z,-0.43
2023-02-27T00:07:13.356Z,-0.51
2023-02-27T00:09:41.876Z,-0.73
2023-02-27T00:12:09.836Z,-0.83
2023-02-27T00:14:36.432Z,-0.71
2023-02-27T00:17:03.123Z,-0.58
2023-02-27T00:19:29.723Z,-0.65
2023-02-27T00:21:56.289Z,-0.82
2023-02-27T00:24:22.841Z,-0.88
2023-02-27T00:26:49.388Z,-1.00
2023-02-27T00:29:17.532Z,-0.79
2023-02-27T00:31:44.239Z,-1.68
2023-02-27T00:34:10.914Z,-0.94
2023-02-27T00:36:37.483Z,-1.01
2023-02-27T00:39:04.384Z,-0.91
2023-02-27T00:41:31.092Z,-1.15
2023-02-27T00:43:57.569Z,-1.09
2023-02-27T00:46:24.265Z,-0.84
2023-02-27T00:48:51.132Z,-0.89
2023-02-27T00:51:20.093Z,-0.95
2023-02-27T00:53:46.699Z,-1.16
2023-02-27T00:56:14.721Z,-1.70
2023-02-27T00:58:41.361Z,-1.23
2023-02-27T01:01:08.064Z,-0.99
2023-02-27T01:03:34.731Z,-1.61
2023-02-27T01:06:01.374Z,-1.20
2023-02-27T01:08:27.943Z,-1.00
2023-02-27T01:10:55.973Z,-1.39
2023-02-27T01:13:23.164Z,-1.56
2023-02-27T01:15:49.801Z,-1.60
2023-02-27T01:18:16.466Z,-1.10
2023-02-27T01:20:43.088Z,-0.87
2023-02-27T01:23:12.917Z,-0.99
2023-02-27T01:25:39.663Z,-1.07
2023-02-27T01:28:06.300Z,-0.90
2023-02-27T01:30:32.821Z,-0.87
2023-02-27T01:32:59.496Z,-0.90
2023-02-27T01:35:26.161Z,-1.08
2023-02-27T01:37:52.752Z,-0.78
2023-02-27T01:40:19.412Z,-0.76
2023-02-27T01:42:47.194Z,-0.71
2023-02-27T01:45:33.168Z,-0.68
2023-02-27T01:48:16.902Z,-1.44
2023-02-27T01:50:49.678Z,-0.60
2023-02-27T01:53:18.537Z,-0.57
2023-02-27T01:55:46.706Z,-0.74
2023-02-27T01:58:15.896Z,-0.74
2023-02-27T02:00:42.750Z,-0.56
2023-02-27T02:03:21.329Z,-0.74
2023-02-27T02:05:51.989Z,-1.07
2023-02-27T02:08:20.740Z,-1.05
2023-02-27T02:10:50.242Z,-1.13
2023-02-27T02:13:18.594Z,-0.82
2023-02-27T02:16:10.335Z,-1.23
2023-02-27T02:18:47.411Z,-0.74
2023-02-27T02:21:32.602Z,-0.56
2023-02-27T02:24:34.814Z,-0.71
2023-02-27T02:27:40.570Z,-0.63
2023-02-27T02:30:32.733Z,-0.78
2023-02-27T02:33:29.371Z,-0.48
2023-02-27T02:36:08.747Z,-0.48
2023-02-27T02:38:56.667Z,-0.51
2023-02-27T02:41:45.478Z,-0.44
2023-02-27T02:44:19.053Z,-0.59
2023-02-27T02:47:01.046Z,-0.72
2023-02-27T02:50:06.165Z,-0.50
2023-02-27T02:52:59.186Z,-0.47
2023-02-27T02:55:47.336Z,-0.55
2023-02-27T02:58:26.223Z,-0.43
2023-02-27T03:01:03.638Z,-0.56
2023-02-27T03:03:35.028Z,-1.10
2023-02-27T03:06:09.363Z,-0.43
2023-02-27T03:08:48.452Z,-0.48
2023-02-27T03:11:15.406Z,-0.58
2023-02-27T03:13:52.944Z,-0.59
2023-02-27T03:16:25.029Z,-1.15
2023-02-27T03:19:09.862Z,-0.64
2023-02-27T03:21:38.704Z,-0.81
2023-02-27T03:24:09.921Z,-0.73
2023-02-27T03:26:42.156Z,-0.55
2023-02-27T03:29:14.705Z,-1.25
2023-02-27T03:31:46.933Z,-0.71
2023-02-27T03:34:34.173Z,-0.67
2023-02-27T03:37:28.595Z,-0.81
2023-02-27T03:40:06.412Z,-0.88
2023-02-27T03:42:41.775Z,-0.95
2023-02-27T03:45:53.218Z,-0.84
2023-02-27T03:48:20.076Z,-0.96
2023-02-27T03:50:47.222Z,-0.99
2023-02-27T03:53:25.420Z,-0.96
2023-02-27T03:55:53.683Z,-1.18
2023-02-27T03:58:20.645Z,-0.95
2023-02-27T04:00:47.339Z,-1.10
2023-02-27T04:03:14.487Z,-1.08
2023-02-27T04:05:42.326Z,-1.01
2023-02-27T04:08:30.439Z,-0.93
2023-02-27T04:11:18.914Z,-0.95
2023-02-27T04:14:03.909Z,-1.02
2023-02-27T04:16:36.427Z,-1.50
2023-02-27T04:19:18.782Z,-1.02
2023-02-27T04:22:18.277Z,-1.11
2023-02-27T04:25:05.752Z,-1.14
2023-02-27T04:27:53.148Z,-1.15
2023-02-27T04:30:27.119Z,-1.14
2023-02-27T04:33:12.052Z,-1.17
2023-02-27T04:35:47.582Z,-1.56
2023-02-27T04:38:27.739Z,-1.23
2023-02-27T04:41:36.501Z,-1.24
2023-02-27T04:44:06.412Z,-1.21
2023-02-27T04:46:36.191Z,-1.47
2023-02-27T04:49:08.992Z,-1.85
2023-02-27T04:51:42.641Z,-1.20
2023-02-27T04:54:15.418Z,-1.40
2023-02-27T04:56:51.525Z,-1.84
2023-02-27T04:59:42.633Z,-1.33
2023-02-27T05:02:16.156Z,-1.34
2023-02-27T05:04:45.406Z,-1.30
2023-02-27T05:07:17.655Z,-1.28
2023-02-27T05:09:53.808Z,-1.31
2023-02-27T05:12:23.478Z,-1.05
2023-02-27T05:15:06.274Z,-0.94
2023-02-27T05:17:38.964Z,-0.89
2023-02-27T05:20:09.038Z,-0.84
2023-02-27T05:22:53.918Z,-0.77
2023-02-27T05:25:29.702Z,-1.09
2023-02-27T05:28:41.973Z,-0.76
2023-02-27T05:31:41.468Z,-0.68
2023-02-27T05:34:32.439Z,-0.84
2023-02-27T05:37:01.864Z,-0.95
2023-02-27T05:39:31.469Z,-0.73
2023-02-27T05:42:03.845Z,-1.03
2023-02-27T05:44:34.918Z,-1.20
2023-02-27T05:47:07.943Z,-0.78
2023-02-27T05:49:43.816Z,-0.84
2023-02-27T05:52:16.227Z,-0.89
2023-02-27T05:54:51.758Z,-0.92
2023-02-27T05:57:25.390Z,-0.97
2023-02-27T06:00:10.858Z,-0.79
2023-02-27T06:02:42.487Z,-0.87
2023-02-27T06:05:10.677Z,-1.03
2023-02-27T06:07:38.094Z,-0.99
2023-02-27T06:10:05.751Z,-1.63
2023-02-27T06:12:32.347Z,-1.05
2023-02-27T06:14:58.957Z,-1.18
2023-02-27T06:17:25.634Z,-1.24
2023-02-27T06:19:52.198Z,-0.93
2023-02-27T06:22:18.783Z,-1.72
2023-02-27T06:24:45.713Z,-1.09
2023-02-27T06:27:12.222Z,-1.26
2023-02-27T06:29:38.789Z,-1.25
2023-02-27T06:32:05.500Z,-1.19
2023-02-27T06:34:32.008Z,-1.28
2023-02-27T06:36:58.674Z,-1.27
2023-02-27T06:39:25.266Z,-2.10
2023-02-27T06:41:51.765Z,-2.04
2023-02-27T06:44:19.551Z,-1.47
2023-02-27T06:46:46.203Z,-1.14
2023-02-27T06:49:13.364Z,-1.11
2023-02-27T06:51:39.877Z,-1.17
2023-02-27T06:54:06.436Z,-1.06
2023-02-27T06:56:32.937Z,-0.97
2023-02-27T06:58:59.668Z,-1.00
2023-02-27T07:01:26.418Z,-0.92
2023-02-27T07:03:53.051Z,-0.84
2023-02-27T07:06:19.522Z,-0.78
2023-02-27T07:09:01.044Z,-0.87
2023-02-27T07:11:32.674Z,-0.69
2023-02-27T07:13:59.376Z,-0.73
2023-02-27T07:16:26.392Z,-0.56
2023-02-27T07:18:53.172Z,-0.53
2023-02-27T07:21:19.726Z,-0.44
2023-02-27T07:23:46.353Z,-0.74
2023-02-27T07:26:13.164Z,0.39
2023-02-27T07:28:39.696Z,0.93
2023-02-27T07:31:06.272Z,1.24
2023-02-27T07:33:33.964Z,1.63
2023-02-27T07:36:00.533Z,2.33
2023-02-27T07:38:28.783Z,2.34
2023-02-27T07:40:55.527Z,3.05
2023-02-27T07:43:22.074Z,3.34
2023-02-27T07:45:50.938Z,4.04
2023-02-27T07:48:18.760Z,4.06
2023-02-27T07:50:45.307Z,4.43
2023-02-27T07:53:13.332Z,4.06
2023-02-27T07:55:39.891Z,4.56
2023-02-27T07:58:06.484Z,5.15
2023-02-27T08:00:33.037Z,5.34
2023-02-27T08:03:00.512Z,5.82
2023-02-27T08:05:27.092Z,4.74
2023-02-27T08:07:53.600Z,5.91
2023-02-27T08:10:20.218Z,6.14
2023-02-27T08:12:46.878Z,6.45
2023-02-27T08:15:14.111Z,6.61
2023-02-27T08:17:40.633Z,6.39
2023-02-27T08:20:08.136Z,6.30
2023-02-27T08:22:34.641Z,6.74
2023-02-27T08:25:01.248Z,7.15
2023-02-27T08:27:27.924Z,7.49
2023-02-27T08:29:54.456Z,7.22
2023-02-27T08:32:21.296Z,7.43
2023-02-27T08:34:47.849Z,7.47
2023-02-27T08:37:14.377Z,7.22
2023-02-27T08:39:40.940Z,7.72
2023-02-27T08:42:08.069Z,8.06
2023-02-27T08:44:34.640Z,8.34
2023-02-27T08:47:01.220Z,8.46
2023-02-27T08:49:27.813Z,8.92
2023-02-27T08:51:54.813Z,8.97
2023-02-27T08:54:21.460Z,9.28
2023-02-27T08:56:48.148Z,8.77
2023-02-27T08:59:15.486Z,9.29
2023-02-27T09:01:43.513Z,9.60
2023-02-27T09:04:10.098Z,9.49
2023-02-27T09:06:37.296Z,9.64
2023-02-27T09:09:04.467Z,9.73
2023-02-27T09:11:31.388Z,10.15
2023-02-27T09:13:58.775Z,10.14
2023-02-27T09:16:26.117Z,10.22
2023-02-27T09:18:52.963Z,10.66
2023-02-27T09:21:20.571Z,10.41
2023-02-27T09:23:47.166Z,10.68
2023-02-27T09:26:13.800Z,11.26
2023-02-27T09:28:40.344Z,11.36
2023-02-27T09:31:08.598Z,11.05
2023-02-27T09:33:37.335Z,11.71
2023-02-27T09:36:05.643Z,12.16
2023-02-27T09:38:34.504Z,11.89
2023-02-27T09:41:02.051Z,12.24
2023-02-27T09:43:39.536Z,11.91
2023-02-27T09:48:52.109Z,12.33
2023-02-27T09:51:19.734Z,12.72
2023-02-27T09:53:49.700Z,12.80
2023-02-27T09:56:23.356Z,12.81
2023-02-27T09:59:27.696Z,13.55
2023-02-27T10:02:00.879Z,14.19
2023-02-27T10:04:43.366Z,13.42
2023-02-27T10:07:35.081Z,13.45
2023-02-27T10:10:07.458Z,13.50
2023-02-27T10:12:41.751Z,13.59
2023-02-27T10:15:11.236Z,13.74
2023-02-27T10:17:44.490Z,13.53
2023-02-27T10:20:30.660Z,13.52
2023-02-27T10:23:01.427Z,13.52
2023-02-27T10:25:31.999Z,13.39
2023-02-27T10:28:11.104Z,13.48
2023-02-27T10:30:38.096Z,13.44
2023-02-27T10:33:10.532Z,13.56
2023-02-27T10:35:39.869Z,13.77
2023-02-27T10:38:17.890Z,14.40
2023-02-27T10:40:46.268Z,14.89
2023-02-27T10:43:19.014Z,14.81
2023-02-27T10:45:45.539Z,14.03
2023-02-27T10:48:13.657Z,14.48
2023-02-27T10:50:45.835Z,15.37
2023-02-27T10:53:23.045Z,15.57
2023-02-27T10:56:03.958Z,15.18
2023-02-27T10:58:34.935Z,14.92
2023-02-27T11:01:09.510Z,14.85
2023-02-27T11:03:41.406Z,15.08
2023-02-27T11:06:41.874Z,15.14
2023-02-27T11:09:21.460Z,16.12
2023-02-27T11:11:48.936Z,15.82
2023-02-27T11:14:35.805Z,14.19
2023-02-27T11:17:03.220Z,13.30
2023-02-27T11:19:36.057Z,13.20
2023-02-27T11:22:24.457Z,11.54
2023-02-27T11:25:09.230Z,10.37
2023-02-27T11:27:35.896Z,9.45
2023-02-27T11:30:06.581Z,9.17
2023-02-27T11:32:46.788Z,9.74
2023-02-27T11:35:26.673Z,9.08
2023-02-27T11:37:56.149Z,8.58
2023-02-27T11:40:30.857Z,9.26
2023-02-27T11:43:03.726Z,8.98
2023-02-27T11:46:16.248Z,9.01
2023-02-27T11:48:35.705Z,8.67
2023-02-27T11:51:08.344Z,8.66
2023-02-27T11:53:53.616Z,8.82
2023-02-27T11:56:25.018Z,8.69
2023-02-27T11:59:04.231Z,8.34
2023-02-27T12:01:38.689Z,8.43
2023-02-27T12:04:17.792Z,8.70
2023-02-27T12:06:50.477Z,10.14
2023-02-27T12:09:28.165Z,12.31
2023-02-27T12:11:56.398Z,14.29
2023-02-27T12:14:31.230Z,15.74
2023-02-27T12:17:08.626Z,16.22
2023-02-27T12:19:55.868Z,16.22
2023-02-27T12:22:35.446Z,17.26
2023-02-27T12:25:16.253Z,16.47
2023-02-27T12:27:57.161Z,16.02
2023-02-27T12:30:31.710Z,13.48
2023-02-27T12:33:09.633Z,11.64
2023-02-27T12:35:36.128Z,11.66
2023-02-27T12:38:05.238Z,11.35
2023-02-27T12:41:27.199Z,13.39
2023-02-27T12:44:04.187Z,12.95
2023-02-27T12:46:40.622Z,11.15
2023-02-27T12:49:21.975Z,10.29
2023-02-27T12:52:03.072Z,9.83
2023-02-27T12:54:39.388Z,10.75
2023-02-27T12:57:05.871Z,13.77
2023-02-27T12:59:51.469Z,16.49
2023-02-27T13:02:39.658Z,16.37
2023-02-27T13:05:24.074Z,15.75
2023-02-27T13:07:59.132Z,16.27
2023-02-27T13:10:41.539Z,17.35
2023-02-27T13:13:34.786Z,18.95
2023-02-27T13:16:08.425Z,17.46
2023-02-27T13:18:47.303Z,16.21
2023-02-27T13:21:19.670Z,17.08
2023-02-27T13:24:33.556Z,18.45
2023-02-27T13:27:34.325Z,19.34
2023-02-27T13:30:03.947Z,19.00
2023-02-27T13:32:59.023Z,15.57
2023-02-27T13:36:07.002Z,13.27
2023-02-27T13:38:47.449Z,12.22
2023-02-27T13:41:20.273Z,11.47
2023-02-27T13:43:52.442Z,10.60
2023-02-27T13:46:22.537Z,10.30
2023-02-27T13:48:54.446Z,11.42
2023-02-27T13:51:39.402Z,12.99
2023-02-27T13:54:18.342Z,12.45
2023-02-27T13:56:48.012Z,11.42
2023-02-27T13:59:26.495Z,10.81
2023-02-27T14:01:59.827Z,10.00
2023-02-27T14:04:30.871Z,9.72
2023-02-27T14:07:01.579Z,10.00
2023-02-27T14:09:36.060Z,11.89
2023-02-27T14:12:06.198Z,11.15
2023-02-27T14:14:50.082Z,10.85
2023-02-27T14:17:35.113Z,10.21
2023-02-27T14:20:12.408Z,9.76
2023-02-27T14:23:17.534Z,9.35
2023-02-27T14:26:15.790Z,9.04
2023-02-27T14:28:55.655Z,8.89
2023-02-27T14:31:30.889Z,8.79
2023-02-27T14:34:04.954Z,8.60
2023-02-27T14:36:44.393Z,8.71
2023-02-27T14:39:21.264Z,8.76
2023-02-27T14:42:21.038Z,8.99
2023-02-27T14:44:49.889Z,9.36
2023-02-27T14:47:31.695Z,9.32
2023-02-27T14:49:59.365Z,9.10
2023-02-27T14:52:30.209Z,8.68
2023-02-27T14:55:07.595Z,8.21
2023-02-27T14:57:34.110Z,8.17
2023-02-27T15:00:00.654Z,7.75
2023-02-27T15:02:35.358Z,8.33
2023-02-27T15:05:01.825Z,10.36
2023-02-27T15:07:31.946Z,10.57
2023-02-27T15:10:05.000Z,10.05
2023-02-27T15:12:36.985Z,10.36
2023-02-27T15:15:06.142Z,10.27
2023-02-27T15:17:43.284Z,9.94
2023-02-27T15:20:36.723Z,9.61
2023-02-27T15:23:27.618Z,9.97
2023-02-27T15:25:59.280Z,10.06
2023-02-27T15:28:38.074Z,10.73
2023-02-27T15:31:07.358Z,10.91
2023-02-27T15:33:34.256Z,10.98
2023-02-27T15:36:01.492Z,10.98
2023-02-27T15:38:31.735Z,11.20
2023-02-27T15:41:00.889Z,11.95
2023-02-27T15:43:29.473Z,11.37
2023-02-27T15:45:58.107Z,10.96
2023-02-27T15:48:25.651Z,11.94
2023-02-27T15:50:55.241Z,11.85
2023-02-27T15:53:27.299Z,12.21
2023-02-27T15:56:00.839Z,12.14
2023-02-27T15:58:35.506Z,11.66
2023-02-27T16:01:07.733Z,10.97
2023-02-27T16:03:42.516Z,10.23
2023-02-27T16:06:12.411Z,10.18
2023-02-27T16:08:45.851Z,10.05
2023-02-27T16:11:30.020Z,10.55
2023-02-27T16:13:57.881Z,10.93
2023-02-27T16:16:28.294Z,11.58
2023-02-27T16:18:58.484Z,11.58
2023-02-27T16:21:27.620Z,10.98
2023-02-27T16:23:55.011Z,11.20
2023-02-27T16:26:21.794Z,11.07
2023-02-27T16:28:52.737Z,10.15
2023-02-27T16:31:30.432Z,10.14
2023-02-27T16:34:00.277Z,9.51
2023-02-27T16:36:30.104Z,8.45
2023-02-27T16:38:57.157Z,7.48
2023-02-27T16:41:24.829Z,6.88
2023-02-27T16:43:53.186Z,6.67
2023-02-27T16:46:20.394Z,6.31
2023-02-27T16:48:55.248Z,5.59
2023-02-27T16:51:25.020Z,5.83
2023-02-27T16:53:52.799Z,5.49
2023-02-27T16:56:32.381Z,5.42
2023-02-27T16:59:03.030Z,4.55
2023-02-27T17:01:29.582Z,5.08
2023-02-27T17:03:57.123Z,4.81
2023-02-27T17:06:23.623Z,4.70
2023-02-27T17:08:50.246Z,3.91
2023-02-27T17:11:16.789Z,4.10
2023-02-27T17:13:43.310Z,4.10
2023-02-27T17:16:10.572Z,4.17
2023-02-27T17:18:37.080Z,4.07
2023-02-27T17:21:04.341Z,3.89
2023-02-27T17:23:30.869Z,3.81
2023-02-27T17:25:57.415Z,3.70
2023-02-27T17:28:24.256Z,3.59
2023-02-27T17:30:51.227Z,2.96
2023-02-27T17:33:18.076Z,3.25
2023-02-27T17:35:44.661Z,3.10
2023-02-27T17:38:11.415Z,3.30
2023-02-27T17:40:39.324Z,3.11
2023-02-27T17:43:06.117Z,2.97
2023-02-27T17:45:32.864Z,3.02
2023-02-27T17:47:59.599Z,2.82
2023-02-27T17:50:26.320Z,2.95
2023-02-27T17:52:52.910Z,2.65
2023-02-27T17:55:19.753Z,2.52
2023-02-27T17:57:46.375Z,2.43
2023-02-27T18:00:15.189Z,2.24
2023-02-27T18:02:44.202Z,2.15
2023-02-27T18:05:10.939Z,2.14
2023-02-27T18:07:37.576Z,1.75
2023-02-27T18:10:05.826Z,1.72
2023-02-27T18:12:32.712Z,1.55
2023-02-27T18:14:59.267Z,0.91
2023-02-27T18:17:25.913Z,1.24
2023-02-27T18:19:52.548Z,1.15
2023-02-27T18:22:21.578Z,1.05
2023-02-27T18:24:51.665Z,1.09
2023-02-27T18:27:18.315Z,0.78
2023-02-27T18:29:44.852Z,0.16
2023-02-27T18:32:11.501Z,0.82
2023-02-27T18:34:40.445Z,0.79
2023-02-27T18:37:07.481Z,-0.51
2023-02-27T18:39:34.053Z,0.50
2023-02-27T18:42:00.857Z,-0.30
2023-02-27T18:44:27.859Z,0.05
2023-02-27T18:46:55.033Z,0.19
2023-02-27T18:49:21.810Z,0.29
2023-02-27T18:51:48.876Z,-0.01
2023-02-27T18:54:15.526Z,0.02
2023-02-27T18:56:42.227Z,-0.71
2023-02-27T18:59:08.934Z,-0.34
2023-02-27T19:01:37.816Z,-0.12
2023-02-27T19:04:06.450Z,-0.75
2023-02-27T19:06:36.782Z,-0.18
2023-02-27T19:09:16.084Z,-0.20
2023-02-27T19:11:45.074Z,-0.64
2023-02-27T19:14:14.439Z,-0.37
2023-02-27T19:16:41.522Z,-0.45
2023-02-27T19:19:09.837Z,-0.30
2023-02-27T19:21:36.946Z,-0.90
2023-02-27T19:24:03.702Z,-0.85
2023-02-27T19:26:32.603Z,-1.00
2023-02-27T19:28:59.457Z,-0.72
2023-02-27T19:31:26.166Z,-0.08
2023-02-27T19:33:52.851Z,-0.26
2023-02-27T19:36:21.542Z,-0.03
2023-02-27T19:38:49.101Z,-0.63
2023-02-27T19:41:16.884Z,-0.14
2023-02-27T19:43:44.395Z,-0.34
2023-02-27T19:46:14.504Z,-0.43
2023-02-27T19:48:42.829Z,-0.93
2023-02-27T19:51:12.096Z,-0.81
2023-02-27T19:53:40.252Z,-0.37
2023-02-27T19:56:09.318Z,-0.30
2023-02-27T19:58:36.934Z,-0.91
2023-02-27T20:01:04.433Z,-0.55
2023-02-27T20:03:31.474Z,-0.74
2023-02-27T20:05:58.072Z,-0.26
2023-02-27T20:08:24.681Z,-0.60
2023-02-27T20:10:54.008Z,-0.22
2023-02-27T20:13:20.576Z,-0.46
2023-02-27T20:15:57.682Z,-0.77
2023-02-27T20:18:24.895Z,-0.11
2023-02-27T20:21:01.741Z,-0.09
2023-02-27T20:23:29.156Z,-0.38
2023-02-27T20:25:55.821Z,-0.88
2023-02-27T20:28:22.853Z,-1.00
2023-02-27T20:30:49.757Z,-1.02
2023-02-27T20:33:16.349Z,-0.33
2023-02-27T20:35:43.133Z,-0.43
2023-02-27T20:38:09.904Z,-0.93
2023-02-27T20:40:36.494Z,-0.50
2023-02-27T20:43:04.031Z,-1.31
2023-02-27T20:45:30.601Z,-1.06
2023-02-27T20:47:57.271Z,-0.81
2023-02-27T20:50:23.863Z,-1.33
2023-02-27T20:52:54.026Z,-1.44
2023-02-27T20:55:20.876Z,-0.93
2023-02-27T20:57:47.431Z,-1.41
2023-02-27T21:00:15.150Z,-1.52
2023-02-27T21:02:41.770Z,-1.02
2023-02-27T21:05:08.866Z,-1.03
2023-02-27T21:07:35.807Z,-1.18
2023-02-27T21:10:02.408Z,-0.94
2023-02-27T21:12:29.054Z,-2.05
2023-02-27T21:14:56.829Z,-1.75
2023-02-27T21:17:26.003Z,-1.59
2023-02-27T21:19:52.520Z,-0.99
2023-02-27T21:22:19.027Z,-1.72
2023-02-27T21:24:46.715Z,-1.73
2023-02-27T21:27:13.306Z,-1.13
2023-02-27T21:29:39.901Z,-1.10
2023-02-27T21:32:07.393Z,-1.59
2023-02-27T21:34:34.103Z,-1.52
2023-02-27T21:37:01.496Z,-1.11
2023-02-27T21:39:28.430Z,-1.14
2023-02-27T21:41:55.187Z,-1.59
2023-02-27T21:44:26.492Z,-1.51
2023-02-27T21:46:53.999Z,-1.56
2023-02-27T21:49:28.804Z,-1.63
2023-02-27T21:51:55.441Z,-0.94
2023-02-27T21:54:22.069Z,-0.87
2023-02-27T21:56:49.343Z,-1.40
2023-02-27T21:59:18.276Z,-0.78
2023-02-27T22:01:48.416Z,-0.77
2023-02-27T22:04:16.696Z,-0.94
2023-02-27T22:06:43.412Z,-0.81
2023-02-27T22:09:10.274Z,-0.70
2023-02-27T22:11:37.363Z,-1.02
2023-02-27T22:14:06.050Z,-0.57
2023-02-27T22:16:32.965Z,-0.99
2023-02-27T22:19:04.150Z,-0.25
2023-02-27T22:21:31.128Z,-0.81
2023-02-27T22:23:58.093Z,-0.17
2023-02-27T22:26:28.263Z,-0.30
2023-02-27T22:28:59.192Z,-0.61
2023-02-27T22:31:34.497Z,-0.02
2023-02-27T22:34:07.864Z,0.13
2023-02-27T22:36:36.954Z,0.18
2023-02-27T22:39:05.394Z,0.11
2023-02-27T22:41:35.166Z,0.30
2023-02-27T22:44:02.294Z,-0.28
2023-02-27T22:46:36.155Z,0.50
2023-02-27T22:49:23.511Z,0.52
2023-02-27T22:51:51.913Z,0.52
2023-02-27T22:54:20.482Z,0.37
2023-02-27T22:56:50.656Z,0.31
2023-02-27T22:59:17.390Z,0.42
2023-02-27T23:01:44.036Z,0.00
2023-02-27T23:04:11.588Z,0.37
2023-02-27T23:06:40.021Z,0.27
2023-02-27T23:09:09.362Z,0.07
2023-02-27T23:11:36.255Z,0.41
2023-02-27T23:14:02.884Z,0.42
2023-02-27T23:16:29.665Z,0.12
2023-02-27T23:18:58.641Z,0.05
2023-02-27T23:21:34.831Z,0.70
2023-02-27T23:24:06.422Z,0.57
2023-02-27T23:26:37.621Z,0.47
2023-02-27T23:29:04.826Z,0.65
2023-02-27T23:31:34.268Z,0.68
2023-02-27T23:34:02.024Z,0.14
2023-02-27T23:36:28.613Z,0.40
2023-02-27T23:38:55.117Z,0.00
2023-02-27T23:41:21.798Z,0.29
2023-02-27T23:44:10.995Z,0.59
2023-02-27T23:46:38.175Z,0.09
2023-02-27T23:49:04.788Z,0.45
2023-02-27T23:51:31.710Z,0.42
2023-02-27T23:53:59.692Z,0.49
2023-02-27T23:56:29.440Z,0.33
2023-02-27T23:59:06.156Z,0.44
